sensor_id;sensor_type;location;lat;lon;timestamp;P1;durP1;ratioP1;P2;durP2;ratioP2
79227;SDS011;68658;46.174;11.254;2023-03-21T00:00:44;15.40;;;6.47;;
79227;SDS011;68658;46.174;11.254;2023-03-21T00:03:10;13.15;;;5.97;;
79227;SDS011;68658;46.174;11.254;2023-03-21T00:05:42;13.77;;;6.13;;
79227;SDS011;68658;46.174;11.254;2023-03-21T00:08:15;13.20;;;5.70;;
79227;SDS011;68658;46.174;11.254;2023-03-21T00:10:41;15.30;;;6.78;;
79227;SDS011;68658;46.174;11.254;2023-03-21T00:13:07;15.50;;;6.90;;
79227;SDS011;68658;46.174;11.254;2023-03-21T00:15:32;14.05;;;6.07;;
79227;SDS011;68658;46.174;11.254;2023-03-21T00:17:58;13.68;;;6.50;;
79227;SDS011;68658;46.174;11.254;2023-03-21T00:20:29;16.63;;;6.78;;
79227;SDS011;68658;46.174;11.254;2023-03-21T00:22:55;13.73;;;5.57;;
79227;SDS011;68658;46.174;11.254;2023-03-21T00:25:20;14.23;;;5.97;;
79227;SDS011;68658;46.174;11.254;2023-03-21T00:27:45;15.27;;;6.27;;
79227;SDS011;68658;46.174;11.254;2023-03-21T00:30:11;14.15;;;5.43;;
79227;SDS011;68658;46.174;11.254;2023-03-21T00:32:37;13.68;;;6.30;;
79227;SDS011;68658;46.174;11.254;2023-03-21T00:35:02;14.23;;;6.40;;
79227;SDS011;68658;46.174;11.254;2023-03-21T00:37:28;13.38;;;5.97;;
79227;SDS011;68658;46.174;11.254;2023-03-21T00:39:54;12.90;;;6.45;;
79227;SDS011;68658;46.174;11.254;2023-03-21T00:42:20;14.80;;;5.88;;
79227;SDS011;68658;46.174;11.254;2023-03-21T00:44:45;21.65;;;7.40;;
79227;SDS011;68658;46.174;11.254;2023-03-21T00:47:11;12.90;;;5.82;;
79227;SDS011;68658;46.174;11.254;2023-03-21T00:49:37;9.82;;;4.40;;
79227;SDS011;68658;46.174;11.254;2023-03-21T00:52:04;11.07;;;5.22;;
79227;SDS011;68658;46.174;11.254;2023-03-21T00:54:32;14.32;;;6.00;;
79227;SDS011;68658;46.174;11.254;2023-03-21T00:56:57;11.88;;;5.38;;
79227;SDS011;68658;46.174;11.254;2023-03-21T00:59:23;13.38;;;5.50;;
79227;SDS011;68658;46.174;11.254;2023-03-21T01:01:48;11.73;;;5.15;;
79227;SDS011;68658;46.174;11.254;2023-03-21T01:04:17;12.35;;;5.30;;
79227;SDS011;68658;46.174;11.254;2023-03-21T01:06:43;11.02;;;5.35;;
79227;SDS011;68658;46.174;11.254;2023-03-21T01:11:39;13.27;;;5.38;;
79227;SDS011;68658;46.174;11.254;2023-03-21T01:14:06;11.98;;;3.92;;
79227;SDS011;68658;46.174;11.254;2023-03-21T01:16:31;7.97;;;4.20;;
79227;SDS011;68658;46.174;11.254;2023-03-21T01:18:57;8.52;;;3.80;;
79227;SDS011;68658;46.174;11.254;2023-03-21T01:21:23;10.70;;;3.78;;
79227;SDS011;68658;46.174;11.254;2023-03-21T01:23:49;11.68;;;4.20;;
79227;SDS011;68658;46.174;11.254;2023-03-21T01:26:15;5.97;;;2.67;;
79227;SDS011;68658;46.174;11.254;2023-03-21T01:28:41;9.63;;;4.20;;
79227;SDS011;68658;46.174;11.254;2023-03-21T01:31:08;8.93;;;3.42;;
79227;SDS011;68658;46.174;11.254;2023-03-21T01:33:36;8.15;;;3.05;;
79227;SDS011;68658;46.174;11.254;2023-03-21T01:36:01;8.25;;;2.90;;
79227;SDS011;68658;46.174;11.254;2023-03-21T01:38:27;7.70;;;3.10;;
79227;SDS011;68658;46.174;11.254;2023-03-21T01:40:53;8.23;;;3.10;;
79227;SDS011;68658;46.174;11.254;2023-03-21T01:43:26;10.47;;;3.97;;
79227;SDS011;68658;46.174;11.254;2023-03-21T01:48:45;9.10;;;3.60;;
79227;SDS011;68658;46.174;11.254;2023-03-21T01:51:14;8.85;;;4.05;;
79227;SDS011;68658;46.174;11.254;2023-03-21T01:53:41;11.70;;;5.85;;
79227;SDS011;68658;46.174;11.254;2023-03-21T01:56:15;10.00;;;4.65;;
79227;SDS011;68658;46.174;11.254;2023-03-21T01:58:46;10.73;;;4.57;;
79227;SDS011;68658;46.174;11.254;2023-03-21T02:01:13;11.35;;;5.00;;
79227;SDS011;68658;46.174;11.254;2023-03-21T02:03:40;9.82;;;3.75;;
79227;SDS011;68658;46.174;11.254;2023-03-21T02:08:48;7.22;;;3.30;;
79227;SDS011;68658;46.174;11.254;2023-03-21T02:11:14;10.82;;;4.20;;
79227;SDS011;68658;46.174;11.254;2023-03-21T02:13:41;10.52;;;4.43;;
79227;SDS011;68658;46.174;11.254;2023-03-21T02:37:47;11.40;;;4.55;;
79227;SDS011;68658;46.174;11.254;2023-03-21T02:40:25;12.45;;;4.55;;
79227;SDS011;68658;46.174;11.254;2023-03-21T02:45:53;11.80;;;6.03;;
79227;SDS011;68658;46.174;11.254;2023-03-21T02:48:26;11.63;;;5.13;;
79227;SDS011;68658;46.174;11.254;2023-03-21T02:50:57;10.98;;;5.10;;
79227;SDS011;68658;46.174;11.254;2023-03-21T02:53:26;12.25;;;5.57;;
79227;SDS011;68658;46.174;11.254;2023-03-21T02:55:55;11.48;;;5.20;;
79227;SDS011;68658;46.174;11.254;2023-03-21T02:58:22;11.43;;;4.57;;
79227;SDS011;68658;46.174;11.254;2023-03-21T03:00:51;10.25;;;4.55;;
79227;SDS011;68658;46.174;11.254;2023-03-21T03:03:20;10.32;;;4.57;;
79227;SDS011;68658;46.174;11.254;2023-03-21T03:05:49;10.23;;;5.00;;
79227;SDS011;68658;46.174;11.254;2023-03-21T03:21:58;10.82;;;4.47;;
79227;SDS011;68658;46.174;11.254;2023-03-21T03:24:31;11.18;;;4.50;;
79227;SDS011;68658;46.174;11.254;2023-03-21T03:27:08;9.13;;;3.85;;
79227;SDS011;68658;46.174;11.254;2023-03-21T03:29:39;8.52;;;3.78;;
79227;SDS011;68658;46.174;11.254;2023-03-21T03:32:11;10.73;;;4.50;;
79227;SDS011;68658;46.174;11.254;2023-03-21T03:34:41;10.98;;;4.53;;
79227;SDS011;68658;46.174;11.254;2023-03-21T03:37:10;12.43;;;4.35;;
79227;SDS011;68658;46.174;11.254;2023-03-21T03:39:54;10.93;;;5.03;;
79227;SDS011;68658;46.174;11.254;2023-03-21T03:42:35;11.77;;;4.88;;
79227;SDS011;68658;46.174;11.254;2023-03-21T03:45:06;12.38;;;4.93;;
79227;SDS011;68658;46.174;11.254;2023-03-21T03:50:19;13.98;;;5.50;;
79227;SDS011;68658;46.174;11.254;2023-03-21T03:52:51;11.93;;;4.93;;
79227;SDS011;68658;46.174;11.254;2023-03-21T03:55:21;14.85;;;5.40;;
79227;SDS011;68658;46.174;11.254;2023-03-21T03:57:47;14.20;;;5.65;;
79227;SDS011;68658;46.174;11.254;2023-03-21T04:00:14;14.02;;;5.63;;
79227;SDS011;68658;46.174;11.254;2023-03-21T04:02:41;13.98;;;5.22;;
79227;SDS011;68658;46.174;11.254;2023-03-21T04:05:07;14.88;;;5.72;;
79227;SDS011;68658;46.174;11.254;2023-03-21T04:07:33;11.00;;;4.90;;
79227;SDS011;68658;46.174;11.254;2023-03-21T04:09:58;12.75;;;4.97;;
79227;SDS011;68658;46.174;11.254;2023-03-21T04:12:27;9.98;;;4.07;;
79227;SDS011;68658;46.174;11.254;2023-03-21T04:14:52;7.45;;;3.25;;
79227;SDS011;68658;46.174;11.254;2023-03-21T04:17:18;11.63;;;5.23;;
79227;SDS011;68658;46.174;11.254;2023-03-21T04:19:44;9.13;;;3.90;;
79227;SDS011;68658;46.174;11.254;2023-03-21T04:22:10;13.80;;;4.65;;
79227;SDS011;68658;46.174;11.254;2023-03-21T04:24:36;14.60;;;4.60;;
79227;SDS011;68658;46.174;11.254;2023-03-21T04:27:06;13.95;;;5.05;;
79227;SDS011;68658;46.174;11.254;2023-03-21T04:29:32;10.50;;;4.30;;
79227;SDS011;68658;46.174;11.254;2023-03-21T04:31:57;10.32;;;4.80;;
79227;SDS011;68658;46.174;11.254;2023-03-21T04:34:24;8.48;;;3.80;;
79227;SDS011;68658;46.174;11.254;2023-03-21T04:36:52;7.00;;;3.63;;
79227;SDS011;68658;46.174;11.254;2023-03-21T04:39:18;11.65;;;4.13;;
79227;SDS011;68658;46.174;11.254;2023-03-21T04:41:44;15.10;;;4.07;;
79227;SDS011;68658;46.174;11.254;2023-03-21T04:44:11;9.27;;;3.85;;
79227;SDS011;68658;46.174;11.254;2023-03-21T04:46:37;10.10;;;3.95;;
79227;SDS011;68658;46.174;11.254;2023-03-21T04:49:06;9.02;;;4.20;;
79227;SDS011;68658;46.174;11.254;2023-03-21T04:51:32;9.75;;;3.38;;
79227;SDS011;68658;46.174;11.254;2023-03-21T04:53:58;8.00;;;3.35;;
79227;SDS011;68658;46.174;11.254;2023-03-21T04:56:24;8.57;;;3.10;;
79227;SDS011;68658;46.174;11.254;2023-03-21T04:58:56;7.28;;;3.13;;
79227;SDS011;68658;46.174;11.254;2023-03-21T05:01:27;7.28;;;3.05;;
79227;SDS011;68658;46.174;11.254;2023-03-21T05:03:59;8.48;;;3.22;;
79227;SDS011;68658;46.174;11.254;2023-03-21T05:06:25;6.70;;;3.35;;
79227;SDS011;68658;46.174;11.254;2023-03-21T05:08:52;7.78;;;3.08;;
79227;SDS011;68658;46.174;11.254;2023-03-21T05:11:24;15.90;;;5.15;;
79227;SDS011;68658;46.174;11.254;2023-03-21T05:13:50;18.10;;;7.40;;
79227;SDS011;68658;46.174;11.254;2023-03-21T05:16:15;9.68;;;4.25;;
79227;SDS011;68658;46.174;11.254;2023-03-21T05:18:41;10.75;;;4.32;;
79227;SDS011;68658;46.174;11.254;2023-03-21T05:21:06;8.70;;;2.50;;
79227;SDS011;68658;46.174;11.254;2023-03-21T05:23:34;6.50;;;3.30;;
79227;SDS011;68658;46.174;11.254;2023-03-21T05:26:06;6.97;;;3.20;;
79227;SDS011;68658;46.174;11.254;2023-03-21T05:28:34;8.98;;;3.45;;
79227;SDS011;68658;46.174;11.254;2023-03-21T05:31:04;9.50;;;3.60;;
79227;SDS011;68658;46.174;11.254;2023-03-21T05:33:30;6.10;;;2.42;;
79227;SDS011;68658;46.174;11.254;2023-03-21T05:35:56;8.98;;;3.08;;
79227;SDS011;68658;46.174;11.254;2023-03-21T05:38:22;7.57;;;2.92;;
79227;SDS011;68658;46.174;11.254;2023-03-21T05:40:49;8.00;;;3.33;;
79227;SDS011;68658;46.174;11.254;2023-03-21T05:43:15;8.40;;;2.85;;
79227;SDS011;68658;46.174;11.254;2023-03-21T05:45:41;9.15;;;2.95;;
79227;SDS011;68658;46.174;11.254;2023-03-21T05:48:07;6.57;;;2.75;;
79227;SDS011;68658;46.174;11.254;2023-03-21T05:50:33;9.00;;;3.78;;
79227;SDS011;68658;46.174;11.254;2023-03-21T05:52:58;12.35;;;3.92;;
79227;SDS011;68658;46.174;11.254;2023-03-21T05:55:24;7.03;;;2.80;;
79227;SDS011;68658;46.174;11.254;2023-03-21T05:57:49;7.25;;;2.72;;
79227;SDS011;68658;46.174;11.254;2023-03-21T06:00:15;9.45;;;3.15;;
79227;SDS011;68658;46.174;11.254;2023-03-21T06:02:42;8.15;;;2.90;;
79227;SDS011;68658;46.174;11.254;2023-03-21T06:05:08;9.18;;;3.15;;
79227;SDS011;68658;46.174;11.254;2023-03-21T06:07:34;9.02;;;3.38;;
79227;SDS011;68658;46.174;11.254;2023-03-21T06:10:01;8.40;;;2.95;;
79227;SDS011;68658;46.174;11.254;2023-03-21T06:12:28;9.98;;;3.20;;
79227;SDS011;68658;46.174;11.254;2023-03-21T06:14:56;8.52;;;3.25;;
79227;SDS011;68658;46.174;11.254;2023-03-21T06:17:21;8.38;;;3.63;;
79227;SDS011;68658;46.174;11.254;2023-03-21T06:19:47;8.98;;;3.20;;
79227;SDS011;68658;46.174;11.254;2023-03-21T06:22:12;10.27;;;3.55;;
79227;SDS011;68658;46.174;11.254;2023-03-21T06:24:38;7.45;;;3.28;;
79227;SDS011;68658;46.174;11.254;2023-03-21T06:27:03;7.57;;;3.33;;
79227;SDS011;68658;46.174;11.254;2023-03-21T06:29:29;10.88;;;4.32;;
79227;SDS011;68658;46.174;11.254;2023-03-21T06:31:55;9.23;;;3.80;;
79227;SDS011;68658;46.174;11.254;2023-03-21T06:34:21;8.80;;;3.30;;
79227;SDS011;68658;46.174;11.254;2023-03-21T06:36:46;10.35;;;4.63;;
79227;SDS011;68658;46.174;11.254;2023-03-21T06:39:16;11.98;;;4.22;;
79227;SDS011;68658;46.174;11.254;2023-03-21T06:41:41;6.47;;;2.90;;
79227;SDS011;68658;46.174;11.254;2023-03-21T06:44:10;8.18;;;3.03;;
79227;SDS011;68658;46.174;11.254;2023-03-21T06:46:35;9.00;;;3.70;;
79227;SDS011;68658;46.174;11.254;2023-03-21T06:49:00;8.05;;;2.78;;
79227;SDS011;68658;46.174;11.254;2023-03-21T06:51:26;8.38;;;3.20;;
79227;SDS011;68658;46.174;11.254;2023-03-21T06:53:51;8.32;;;3.13;;
79227;SDS011;68658;46.174;11.254;2023-03-21T06:56:17;8.60;;;3.33;;
79227;SDS011;68658;46.174;11.254;2023-03-21T06:58:42;8.45;;;3.67;;
79227;SDS011;68658;46.174;11.254;2023-03-21T07:01:08;8.55;;;4.05;;
79227;SDS011;68658;46.174;11.254;2023-03-21T07:03:33;7.55;;;3.17;;
79227;SDS011;68658;46.174;11.254;2023-03-21T07:06:02;7.80;;;3.20;;
79227;SDS011;68658;46.174;11.254;2023-03-21T07:08:29;8.15;;;3.13;;
79227;SDS011;68658;46.174;11.254;2023-03-21T07:10:55;9.00;;;3.43;;
79227;SDS011;68658;46.174;11.254;2023-03-21T07:13:21;8.18;;;2.53;;
79227;SDS011;68658;46.174;11.254;2023-03-21T07:15:47;10.57;;;2.75;;
79227;SDS011;68658;46.174;11.254;2023-03-21T07:18:12;7.05;;;2.40;;
79227;SDS011;68658;46.174;11.254;2023-03-21T07:20:38;7.07;;;2.90;;
79227;SDS011;68658;46.174;11.254;2023-03-21T07:23:03;10.48;;;3.53;;
79227;SDS011;68658;46.174;11.254;2023-03-21T07:25:29;11.43;;;3.35;;
79227;SDS011;68658;46.174;11.254;2023-03-21T07:27:54;8.00;;;3.17;;
79227;SDS011;68658;46.174;11.254;2023-03-21T07:30:20;7.65;;;2.55;;
79227;SDS011;68658;46.174;11.254;2023-03-21T07:32:46;9.35;;;4.15;;
79227;SDS011;68658;46.174;11.254;2023-03-21T07:35:12;8.48;;;4.43;;
79227;SDS011;68658;46.174;11.254;2023-03-21T07:37:40;9.88;;;4.43;;
79227;SDS011;68658;46.174;11.254;2023-03-21T07:40:06;10.45;;;3.65;;
79227;SDS011;68658;46.174;11.254;2023-03-21T07:42:36;8.55;;;3.10;;
79227;SDS011;68658;46.174;11.254;2023-03-21T07:45:03;6.82;;;2.83;;
79227;SDS011;68658;46.174;11.254;2023-03-21T07:47:29;8.45;;;3.15;;
79227;SDS011;68658;46.174;11.254;2023-03-21T07:49:55;7.53;;;3.33;;
79227;SDS011;68658;46.174;11.254;2023-03-21T07:52:20;10.50;;;3.30;;
79227;SDS011;68658;46.174;11.254;2023-03-21T07:54:45;7.60;;;3.00;;
79227;SDS011;68658;46.174;11.254;2023-03-21T07:57:11;10.07;;;3.50;;
79227;SDS011;68658;46.174;11.254;2023-03-21T07:59:36;9.03;;;3.70;;
79227;SDS011;68658;46.174;11.254;2023-03-21T08:02:01;8.87;;;4.03;;
79227;SDS011;68658;46.174;11.254;2023-03-21T08:04:27;12.30;;;5.20;;
79227;SDS011;68658;46.174;11.254;2023-03-21T08:06:52;7.87;;;3.73;;
79227;SDS011;68658;46.174;11.254;2023-03-21T08:09:18;11.43;;;3.22;;
79227;SDS011;68658;46.174;11.254;2023-03-21T08:11:43;8.55;;;3.20;;
79227;SDS011;68658;46.174;11.254;2023-03-21T08:14:09;8.40;;;3.40;;
79227;SDS011;68658;46.174;11.254;2023-03-21T08:16:34;8.35;;;4.05;;
79227;SDS011;68658;46.174;11.254;2023-03-21T08:19:00;6.72;;;3.00;;
79227;SDS011;68658;46.174;11.254;2023-03-21T08:21:25;9.13;;;3.40;;
79227;SDS011;68658;46.174;11.254;2023-03-21T08:23:51;5.15;;;2.90;;
79227;SDS011;68658;46.174;11.254;2023-03-21T08:26:17;8.85;;;3.20;;
79227;SDS011;68658;46.174;11.254;2023-03-21T08:28:46;9.85;;;3.25;;
79227;SDS011;68658;46.174;11.254;2023-03-21T08:31:12;8.50;;;3.08;;
79227;SDS011;68658;46.174;11.254;2023-03-21T08:33:38;7.00;;;2.85;;
79227;SDS011;68658;46.174;11.254;2023-03-21T08:36:04;8.40;;;3.10;;
79227;SDS011;68658;46.174;11.254;2023-03-21T08:38:30;8.20;;;3.20;;
79227;SDS011;68658;46.174;11.254;2023-03-21T08:40:57;6.88;;;2.97;;
79227;SDS011;68658;46.174;11.254;2023-03-21T08:43:24;32.25;;;12.32;;
79227;SDS011;68658;46.174;11.254;2023-03-21T08:45:50;8.88;;;3.78;;
79227;SDS011;68658;46.174;11.254;2023-03-21T08:48:16;6.85;;;2.63;;
79227;SDS011;68658;46.174;11.254;2023-03-21T08:50:41;6.40;;;3.08;;
79227;SDS011;68658;46.174;11.254;2023-03-21T08:53:10;7.45;;;3.00;;
79227;SDS011;68658;46.174;11.254;2023-03-21T08:55:35;8.73;;;2.97;;
79227;SDS011;68658;46.174;11.254;2023-03-21T08:58:02;8.77;;;3.47;;
79227;SDS011;68658;46.174;11.254;2023-03-21T09:00:28;11.07;;;3.35;;
79227;SDS011;68658;46.174;11.254;2023-03-21T09:02:56;9.35;;;3.83;;
79227;SDS011;68658;46.174;11.254;2023-03-21T09:05:22;9.15;;;4.22;;
79227;SDS011;68658;46.174;11.254;2023-03-21T09:07:50;8.18;;;4.07;;
79227;SDS011;68658;46.174;11.254;2023-03-21T09:10:18;12.00;;;4.07;;
79227;SDS011;68658;46.174;11.254;2023-03-21T09:12:45;10.85;;;4.10;;
79227;SDS011;68658;46.174;11.254;2023-03-21T09:15:11;9.70;;;3.85;;
79227;SDS011;68658;46.174;11.254;2023-03-21T09:17:41;10.05;;;4.57;;
79227;SDS011;68658;46.174;11.254;2023-03-21T09:20:11;10.50;;;4.20;;
79227;SDS011;68658;46.174;11.254;2023-03-21T09:22:46;19.42;;;6.60;;
79227;SDS011;68658;46.174;11.254;2023-03-21T09:25:13;10.13;;;4.50;;
79227;SDS011;68658;46.174;11.254;2023-03-21T09:27:40;7.50;;;4.13;;
79227;SDS011;68658;46.174;11.254;2023-03-21T09:32:36;12.90;;;6.40;;
79227;SDS011;68658;46.174;11.254;2023-03-21T09:35:02;14.88;;;5.63;;
79227;SDS011;68658;46.174;11.254;2023-03-21T09:37:29;10.90;;;4.07;;
79227;SDS011;68658;46.174;11.254;2023-03-21T09:39:56;9.80;;;4.35;;
79227;SDS011;68658;46.174;11.254;2023-03-21T09:45:29;10.82;;;3.75;;
79227;SDS011;68658;46.174;11.254;2023-03-21T09:48:00;10.45;;;3.63;;
79227;SDS011;68658;46.174;11.254;2023-03-21T09:50:30;7.80;;;3.20;;
79227;SDS011;68658;46.174;11.254;2023-03-21T09:53:07;8.80;;;3.50;;
79227;SDS011;68658;46.174;11.254;2023-03-21T09:55:40;11.85;;;4.35;;
79227;SDS011;68658;46.174;11.254;2023-03-21T10:00:44;11.18;;;4.72;;
79227;SDS011;68658;46.174;11.254;2023-03-21T10:03:28;10.50;;;4.75;;
79227;SDS011;68658;46.174;11.254;2023-03-21T10:05:59;11.77;;;5.30;;
79227;SDS011;68658;46.174;11.254;2023-03-21T10:08:36;10.88;;;4.65;;
79227;SDS011;68658;46.174;11.254;2023-03-21T10:11:08;9.88;;;5.05;;
79227;SDS011;68658;46.174;11.254;2023-03-21T10:13:38;12.10;;;5.40;;
79227;SDS011;68658;46.174;11.254;2023-03-21T10:16:41;12.07;;;5.30;;
79227;SDS011;68658;46.174;11.254;2023-03-21T10:19:02;12.38;;;5.85;;
79227;SDS011;68658;46.174;11.254;2023-03-21T10:21:32;11.95;;;5.85;;
79227;SDS011;68658;46.174;11.254;2023-03-21T10:23:57;17.20;;;5.57;;
79227;SDS011;68658;46.174;11.254;2023-03-21T10:26:24;11.93;;;5.22;;
79227;SDS011;68658;46.174;11.254;2023-03-21T10:28:53;13.80;;;5.82;;
79227;SDS011;68658;46.174;11.254;2023-03-21T10:33:53;15.90;;;6.55;;
79227;SDS011;68658;46.174;11.254;2023-03-21T10:36:22;11.93;;;5.85;;
79227;SDS011;68658;46.174;11.254;2023-03-21T10:39:19;12.15;;;6.30;;
79227;SDS011;68658;46.174;11.254;2023-03-21T10:41:50;15.43;;;7.25;;
79227;SDS011;68658;46.174;11.254;2023-03-21T10:44:16;14.15;;;6.07;;
79227;SDS011;68658;46.174;11.254;2023-03-21T10:46:53;19.20;;;7.20;;
79227;SDS011;68658;46.174;11.254;2023-03-21T10:49:20;14.32;;;6.05;;
79227;SDS011;68658;46.174;11.254;2023-03-21T10:51:46;15.95;;;6.28;;
79227;SDS011;68658;46.174;11.254;2023-03-21T10:54:17;15.07;;;6.35;;
79227;SDS011;68658;46.174;11.254;2023-03-21T10:56:47;11.70;;;6.00;;
79227;SDS011;68658;46.174;11.254;2023-03-21T10:59:20;15.68;;;6.45;;
79227;SDS011;68658;46.174;11.254;2023-03-21T11:01:50;16.08;;;6.00;;
79227;SDS011;68658;46.174;11.254;2023-03-21T11:04:23;14.65;;;5.97;;
79227;SDS011;68658;46.174;11.254;2023-03-21T11:06:55;19.13;;;6.78;;
79227;SDS011;68658;46.174;11.254;2023-03-21T11:09:24;11.35;;;5.57;;
79227;SDS011;68658;46.174;11.254;2023-03-21T11:12:10;14.55;;;5.78;;
79227;SDS011;68658;46.174;11.254;2023-03-21T11:19:45;18.27;;;6.18;;
79227;SDS011;68658;46.174;11.254;2023-03-21T11:22:12;14.45;;;5.65;;
79227;SDS011;68658;46.174;11.254;2023-03-21T11:24:37;14.93;;;5.57;;
79227;SDS011;68658;46.174;11.254;2023-03-21T11:27:06;11.63;;;6.13;;
79227;SDS011;68658;46.174;11.254;2023-03-21T11:29:33;13.88;;;5.40;;
79227;SDS011;68658;46.174;11.254;2023-03-21T11:32:10;14.18;;;5.82;;
79227;SDS011;68658;46.174;11.254;2023-03-21T11:34:40;11.35;;;6.10;;
79227;SDS011;68658;46.174;11.254;2023-03-21T11:37:15;12.98;;;5.78;;
79227;SDS011;68658;46.174;11.254;2023-03-21T11:42:47;12.93;;;5.85;;
79227;SDS011;68658;46.174;11.254;2023-03-21T11:47:41;14.68;;;6.13;;
79227;SDS011;68658;46.174;11.254;2023-03-21T11:50:26;13.20;;;6.03;;
79227;SDS011;68658;46.174;11.254;2023-03-21T12:04:45;11.70;;;4.43;;
79227;SDS011;68658;46.174;11.254;2023-03-21T12:18:56;12.30;;;4.43;;
79227;SDS011;68658;46.174;11.254;2023-03-21T12:24:21;10.50;;;4.15;;
79227;SDS011;68658;46.174;11.254;2023-03-21T12:27:01;9.35;;;3.63;;
79227;SDS011;68658;46.174;11.254;2023-03-21T12:45:59;9.32;;;4.07;;
79227;SDS011;68658;46.174;11.254;2023-03-21T12:48:49;8.90;;;4.38;;
79227;SDS011;68658;46.174;11.254;2023-03-21T12:51:52;10.57;;;4.75;;
79227;SDS011;68658;46.174;11.254;2023-03-21T12:59:21;11.18;;;4.20;;
79227;SDS011;68658;46.174;11.254;2023-03-21T13:01:54;7.85;;;4.65;;
79227;SDS011;68658;46.174;11.254;2023-03-21T13:06:55;10.90;;;4.63;;
79227;SDS011;68658;46.174;11.254;2023-03-21T13:09:39;10.07;;;4.72;;
79227;SDS011;68658;46.174;11.254;2023-03-21T13:12:10;9.48;;;5.00;;
79227;SDS011;68658;46.174;11.254;2023-03-21T13:14:47;14.65;;;4.78;;
79227;SDS011;68658;46.174;11.254;2023-03-21T13:17:36;10.68;;;5.05;;
79227;SDS011;68658;46.174;11.254;2023-03-21T13:22:40;9.93;;;4.60;;
79227;SDS011;68658;46.174;11.254;2023-03-21T13:25:06;11.07;;;5.32;;
79227;SDS011;68658;46.174;11.254;2023-03-21T13:27:49;12.63;;;4.95;;
79227;SDS011;68658;46.174;11.254;2023-03-21T13:30:29;10.20;;;5.60;;
79227;SDS011;68658;46.174;11.254;2023-03-21T13:33:06;12.00;;;6.03;;
79227;SDS011;68658;46.174;11.254;2023-03-21T13:35:40;10.25;;;5.30;;
79227;SDS011;68658;46.174;11.254;2023-03-21T13:45:57;13.57;;;6.45;;
79227;SDS011;68658;46.174;11.254;2023-03-21T13:51:18;10.95;;;5.03;;
79227;SDS011;68658;46.174;11.254;2023-03-21T13:59:16;9.98;;;5.40;;
79227;SDS011;68658;46.174;11.254;2023-03-21T14:02:17;14.52;;;6.10;;
79227;SDS011;68658;46.174;11.254;2023-03-21T14:04:43;12.48;;;5.35;;
79227;SDS011;68658;46.174;11.254;2023-03-21T14:07:20;14.40;;;5.78;;
79227;SDS011;68658;46.174;11.254;2023-03-21T14:09:59;16.27;;;6.45;;
79227;SDS011;68658;46.174;11.254;2023-03-21T14:12:36;11.63;;;6.20;;
79227;SDS011;68658;46.174;11.254;2023-03-21T14:17:33;13.45;;;7.10;;
79227;SDS011;68658;46.174;11.254;2023-03-21T14:20:01;19.77;;;6.57;;
79227;SDS011;68658;46.174;11.254;2023-03-21T14:22:48;15.48;;;6.03;;
79227;SDS011;68658;46.174;11.254;2023-03-21T14:25:15;12.48;;;6.90;;
79227;SDS011;68658;46.174;11.254;2023-03-21T14:27:47;15.07;;;6.10;;
79227;SDS011;68658;46.174;11.254;2023-03-21T14:30:22;13.82;;;6.43;;
79227;SDS011;68658;46.174;11.254;2023-03-21T14:32:52;14.00;;;6.32;;
79227;SDS011;68658;46.174;11.254;2023-03-21T14:35:23;14.20;;;6.13;;
79227;SDS011;68658;46.174;11.254;2023-03-21T14:37:55;12.77;;;5.93;;
79227;SDS011;68658;46.174;11.254;2023-03-21T14:40:25;13.65;;;6.95;;
79227;SDS011;68658;46.174;11.254;2023-03-21T14:42:55;13.82;;;7.38;;
79227;SDS011;68658;46.174;11.254;2023-03-21T14:45:25;17.27;;;6.38;;
79227;SDS011;68658;46.174;11.254;2023-03-21T14:47:59;16.25;;;7.57;;
79227;SDS011;68658;46.174;11.254;2023-03-21T14:51:06;15.88;;;7.57;;
79227;SDS011;68658;46.174;11.254;2023-03-21T14:53:31;15.80;;;6.78;;
79227;SDS011;68658;46.174;11.254;2023-03-21T14:56:01;13.10;;;7.20;;
79227;SDS011;68658;46.174;11.254;2023-03-21T14:58:32;14.25;;;7.13;;
79227;SDS011;68658;46.174;11.254;2023-03-21T15:01:02;15.63;;;7.10;;
79227;SDS011;68658;46.174;11.254;2023-03-21T15:03:30;13.80;;;7.32;;
79227;SDS011;68658;46.174;11.254;2023-03-21T15:05:57;14.90;;;7.88;;
79227;SDS011;68658;46.174;11.254;2023-03-21T15:08:24;15.57;;;6.85;;
79227;SDS011;68658;46.174;11.254;2023-03-21T15:10:55;17.20;;;6.65;;
79227;SDS011;68658;46.174;11.254;2023-03-21T15:13:33;18.35;;;7.25;;
79227;SDS011;68658;46.174;11.254;2023-03-21T15:16:19;19.70;;;7.15;;
79227;SDS011;68658;46.174;11.254;2023-03-21T15:18:49;14.15;;;6.60;;
79227;SDS011;68658;46.174;11.254;2023-03-21T15:21:26;13.90;;;6.38;;
79227;SDS011;68658;46.174;11.254;2023-03-21T15:24:01;16.52;;;6.53;;
79227;SDS011;68658;46.174;11.254;2023-03-21T15:26:37;14.25;;;6.90;;
79227;SDS011;68658;46.174;11.254;2023-03-21T15:29:04;12.85;;;6.55;;
79227;SDS011;68658;46.174;11.254;2023-03-21T15:31:34;13.85;;;7.40;;
79227;SDS011;68658;46.174;11.254;2023-03-21T15:34:03;14.35;;;6.28;;
79227;SDS011;68658;46.174;11.254;2023-03-21T15:36:33;14.02;;;5.70;;
79227;SDS011;68658;46.174;11.254;2023-03-21T15:39:05;13.48;;;5.90;;
79227;SDS011;68658;46.174;11.254;2023-03-21T15:41:33;15.15;;;5.50;;
79227;SDS011;68658;46.174;11.254;2023-03-21T15:44:00;12.40;;;6.35;;
79227;SDS011;68658;46.174;11.254;2023-03-21T15:49:07;14.55;;;6.65;;
79227;SDS011;68658;46.174;11.254;2023-03-21T15:51:34;15.00;;;6.25;;
79227;SDS011;68658;46.174;11.254;2023-03-21T15:54:01;14.45;;;6.50;;
79227;SDS011;68658;46.174;11.254;2023-03-21T15:56:27;12.82;;;5.88;;
79227;SDS011;68658;46.174;11.254;2023-03-21T15:58:59;13.63;;;6.60;;
79227;SDS011;68658;46.174;11.254;2023-03-21T16:01:26;14.68;;;6.25;;
79227;SDS011;68658;46.174;11.254;2023-03-21T16:04:01;14.80;;;5.70;;
79227;SDS011;68658;46.174;11.254;2023-03-21T16:06:32;17.27;;;7.25;;
79227;SDS011;68658;46.174;11.254;2023-03-21T16:11:41;15.95;;;7.18;;
79227;SDS011;68658;46.174;11.254;2023-03-21T16:14:09;19.42;;;7.55;;
79227;SDS011;68658;46.174;11.254;2023-03-21T16:16:35;15.60;;;7.57;;
79227;SDS011;68658;46.174;11.254;2023-03-21T16:19:01;19.48;;;8.60;;
79227;SDS011;68658;46.174;11.254;2023-03-21T16:21:30;18.55;;;7.47;;
79227;SDS011;68658;46.174;11.254;2023-03-21T16:23:58;22.08;;;9.18;;
79227;SDS011;68658;46.174;11.254;2023-03-21T16:26:24;21.50;;;10.27;;
79227;SDS011;68658;46.174;11.254;2023-03-21T16:28:52;29.70;;;9.95;;
79227;SDS011;68658;46.174;11.254;2023-03-21T16:31:22;18.63;;;7.35;;
79227;SDS011;68658;46.174;11.254;2023-03-21T16:33:55;17.75;;;7.82;;
79227;SDS011;68658;46.174;11.254;2023-03-21T16:36:24;14.55;;;6.55;;
79227;SDS011;68658;46.174;11.254;2023-03-21T16:38:53;19.48;;;8.27;;
79227;SDS011;68658;46.174;11.254;2023-03-21T16:41:19;18.15;;;7.85;;
79227;SDS011;68658;46.174;11.254;2023-03-21T16:43:46;16.98;;;7.88;;
79227;SDS011;68658;46.174;11.254;2023-03-21T16:46:15;17.92;;;8.05;;
79227;SDS011;68658;46.174;11.254;2023-03-21T16:48:47;18.23;;;7.28;;
79227;SDS011;68658;46.174;11.254;2023-03-21T16:51:16;15.70;;;7.43;;
79227;SDS011;68658;46.174;11.254;2023-03-21T16:53:43;18.13;;;8.30;;
79227;SDS011;68658;46.174;11.254;2023-03-21T16:56:17;22.27;;;8.85;;
79227;SDS011;68658;46.174;11.254;2023-03-21T16:58:44;18.17;;;8.30;;
79227;SDS011;68658;46.174;11.254;2023-03-21T17:01:19;19.05;;;8.55;;
79227;SDS011;68658;46.174;11.254;2023-03-21T17:03:49;12.95;;;5.72;;